Aviation Digital Data Service (ADDS)

Output produced by METARs form (1650 UTC 24 August 2019)
found at http://www.aviationweather.gov/metar/data/
 
KPHL 241505Z 2415/2518 05010KT P6SM SCT080 
     TEMPO 2415/2417 BKN080 
     FM242300 06006KT P6SM SCT200